Time;durP1;ratioP1;P1;durP2;ratioP2;P2;SDS_P1;SDS_P2;PMS_P1;PMS_P2;Temp;Humidity;BMP_temperature;BMP_pressure;BME280_temperature;BME280_humidity;BME280_pressure;Samples;Min_cycle;Max_cycle;Signal;HPM_P1;HPM_P2
2023/10/28 00:02:14;;;;;;;0.73;0.60;;;;;;;10.37;100.00;96526.44;5076100;28;20196;-73
2023/10/28 00:04:41;;;;;;;1.23;0.60;;;;;;;10.29;100.00;96526.88;5075627;28;20560;-73
2023/10/28 00:07:08;;;;;;;1.43;0.60;;;;;;;10.33;100.00;96530.66;5075478;28;20695;-73
2023/10/28 00:09:34;;;;;;;1.17;0.50;;;;;;;10.29;100.00;96529.53;5075893;28;20285;-73
2023/10/28 00:12:00;;;;;;;0.53;0.50;;;;;;;10.27;100.00;96531.66;5075871;28;20207;-73
2023/10/28 00:14:27;;;;;;;1.13;0.50;;;;;;;10.26;100.00;96535.34;5075746;28;20208;-73
2023/10/28 00:16:53;;;;;;;0.80;0.60;;;;;;;10.32;100.00;96537.00;5076222;28;20203;-73
2023/10/28 00:19:20;;;;;;;1.13;0.70;;;;;;;10.30;100.00;96531.13;5075454;28;20221;-73
2023/10/28 00:21:46;;;;;;;0.77;0.57;;;;;;;10.29;100.00;96537.50;5074890;28;20929;-73
2023/10/28 00:24:13;;;;;;;0.63;0.50;;;;;;;10.35;100.00;96542.63;5075576;28;20209;-73
2023/10/28 00:26:39;;;;;;;1.03;0.73;;;;;;;10.36;100.00;96538.91;5075367;28;20682;-72
2023/10/28 00:29:05;;;;;;;0.47;0.47;;;;;;;10.35;100.00;96544.47;5075332;28;20749;-72
2023/10/28 00:31:32;;;;;;;1.13;0.53;;;;;;;10.37;100.00;96551.13;5075143;28;20567;-73
2023/10/28 00:33:58;;;;;;;2.30;0.60;;;;;;;10.22;100.00;96544.88;5075293;28;20690;-73
2023/10/28 00:36:24;;;;;;;1.57;0.80;;;;;;;10.26;100.00;96548.63;5075311;28;20215;-73
2023/10/28 00:38:51;;;;;;;0.73;0.50;;;;;;;10.26;100.00;96540.66;5074856;28;20588;-73
2023/10/28 00:41:17;;;;;;;0.70;0.40;;;;;;;10.25;100.00;96547.03;5075173;28;20671;-73
2023/10/28 00:43:44;;;;;;;0.57;0.47;;;;;;;10.24;100.00;96543.59;5074936;28;20215;-73
2023/10/28 00:46:11;;;;;;;2.47;0.50;;;;;;;10.23;100.00;96549.16;5075275;28;20227;-73
2023/10/28 00:48:38;;;;;;;3.17;0.43;;;;;;;10.18;100.00;96549.13;5074614;28;20603;-73
2023/10/28 00:51:05;;;;;;;0.53;0.50;;;;;;;10.19;100.00;96551.50;5075062;28;20300;-73
2023/10/28 00:53:31;;;;;;;1.80;0.50;;;;;;;10.12;100.00;96552.75;5075205;28;20211;-73
2023/10/28 00:55:59;;;;;;;0.83;0.40;;;;;;;10.10;100.00;96552.22;5074579;28;20590;-73
2023/10/28 00:58:26;;;;;;;2.53;0.50;;;;;;;10.11;100.00;96556.47;5057200;28;20224;-73
2023/10/28 01:00:53;;;;;;;0.80;0.43;;;;;;;10.01;100.00;96557.13;5074622;28;20614;-73
2023/10/28 01:03:19;;;;;;;2.27;0.77;;;;;;;10.07;100.00;96563.34;5075052;28;20231;-73
2023/10/28 01:05:46;;;;;;;1.57;0.70;;;;;;;10.08;100.00;96563.09;5074583;28;20590;-73
2023/10/28 01:08:13;;;;;;;0.53;0.40;;;;;;;10.07;100.00;96568.66;5074303;28;20713;-73
2023/10/28 01:10:40;;;;;;;0.47;0.47;;;;;;;10.08;100.00;96573.72;5074441;28;20207;-73
2023/10/28 01:13:08;;;;;;;0.77;0.50;;;;;;;10.16;100.00;96575.91;5074671;28;20211;-73
2023/10/28 01:15:35;;;;;;;0.60;0.50;;;;;;;10.17;100.00;96572.22;5074294;28;20685;-73
2023/10/28 01:18:02;;;;;;;1.00;0.60;;;;;;;10.15;100.00;96570.84;5074212;28;20706;-73
2023/10/28 01:20:28;;;;;;;0.60;0.60;;;;;;;10.17;100.00;96580.16;5074519;28;20201;-73
2023/10/28 01:22:55;;;;;;;0.70;0.50;;;;;;;10.14;100.00;96578.00;5074159;28;20291;-73
2023/10/28 01:25:21;;;;;;;0.83;0.60;;;;;;;10.14;100.00;96574.56;5074098;28;20209;-73
2023/10/28 01:27:48;;;;;;;0.57;0.50;;;;;;;10.13;100.00;96579.06;5074139;28;20232;-73
2023/10/28 01:30:14;;;;;;;1.47;0.60;;;;;;;10.06;100.00;96578.50;5074058;28;20725;-73
2023/10/28 01:32:42;;;;;;;0.73;0.60;;;;;;;10.08;100.00;96572.91;5073531;28;20201;-73
2023/10/28 01:35:09;;;;;;;0.93;0.67;;;;;;;10.16;100.00;96570.59;5073884;28;20298;-73
2023/10/28 01:37:37;;;;;;;1.00;0.80;;;;;;;10.12;100.00;96576.66;5074056;28;20274;-73
2023/10/28 01:40:09;;;;;;;1.70;0.60;;;;;;;10.05;100.00;96582.16;5073769;28;20696;-73
2023/10/28 01:42:35;;;;;;;0.73;0.47;;;;;;;10.08;100.00;96589.63;5074130;28;20280;-73
2023/10/28 01:45:02;;;;;;;1.07;0.77;;;;;;;10.02;100.00;96589.81;5073919;28;20219;-73
2023/10/28 01:47:29;;;;;;;0.50;0.50;;;;;;;10.05;100.00;96584.81;5073851;28;20318;-73
2023/10/28 01:49:57;;;;;;;1.00;0.57;;;;;;;10.05;100.00;96592.78;5073677;28;20296;-73
2023/10/28 01:52:24;;;;;;;0.80;0.60;;;;;;;10.10;100.00;96597.38;5073643;28;20243;-73
2023/10/28 01:54:51;;;;;;;1.00;0.70;;;;;;;10.08;100.00;96594.94;5073584;28;20679;-73
2023/10/28 01:57:18;;;;;;;2.00;0.70;;;;;;;10.10;100.00;96598.16;5073724;28;20224;-73
2023/10/28 01:59:46;;;;;;;1.30;0.53;;;;;;;10.07;100.00;96603.16;5073395;28;20660;-73
2023/10/28 02:02:12;;;;;;;1.70;0.80;;;;;;;10.07;100.00;96609.28;5073390;28;20188;-73
2023/10/28 02:04:39;;;;;;;0.70;0.40;;;;;;;10.09;100.00;96603.72;5073765;28;20211;-73
2023/10/28 02:07:06;;;;;;;1.10;0.90;;;;;;;10.12;100.00;96613.84;5073331;28;20215;-73
2023/10/28 02:09:33;;;;;;;1.87;0.50;;;;;;;10.08;100.00;96610.88;5073760;28;20232;-73
2023/10/28 02:12:02;;;;;;;1.60;0.70;;;;;;;10.10;100.00;96618.59;5073692;28;20208;-73
2023/10/28 02:14:29;;;;;;;0.70;0.70;;;;;;;10.08;100.00;96620.69;5073616;28;20209;-73
2023/10/28 02:16:56;;;;;;;0.53;0.50;;;;;;;10.07;100.00;96614.59;5073311;28;20667;-73
2023/10/28 02:19:23;;;;;;;2.77;0.80;;;;;;;10.07;100.00;96624.41;5073610;28;20203;-73
2023/10/28 02:21:50;;;;;;;1.77;0.80;;;;;;;10.08;100.00;96624.16;5073517;28;20291;-73
2023/10/28 02:24:16;;;;;;;2.40;0.70;;;;;;;10.05;100.00;96616.69;5073403;28;20299;-73
2023/10/28 02:26:43;;;;;;;2.17;0.90;;;;;;;10.09;100.00;96628.41;5073519;28;20231;-73
2023/10/28 02:29:10;;;;;;;0.73;0.60;;;;;;;10.08;100.00;96621.50;5072967;28;20233;-73
2023/10/28 02:31:37;;;;;;;1.17;0.83;;;;;;;10.12;100.00;96616.47;5073295;28;20238;-73
2023/10/28 02:34:07;;;;;;;0.43;0.43;;;;;;;10.08;100.00;96618.03;5073288;28;20209;-73
2023/10/28 02:36:33;;;;;;;0.60;0.50;;;;;;;10.08;100.00;96623.34;5073482;28;20185;-73
2023/10/28 02:39:00;;;;;;;1.07;0.67;;;;;;;10.02;100.00;96625.13;5073182;28;20746;-73
2023/10/28 02:41:26;;;;;;;2.17;0.70;;;;;;;10.04;100.00;96619.56;5073329;28;20205;-73
2023/10/28 02:43:53;;;;;;;0.80;0.67;;;;;;;9.95;100.00;96613.09;5073330;28;20572;-73
2023/10/28 02:46:23;;;;;;;1.10;0.70;;;;;;;9.97;100.00;96624.28;5077413;28;20208;-73
2023/10/28 02:48:51;;;;;;;0.60;0.60;;;;;;;9.94;100.00;96630.06;5077205;28;20568;-73
2023/10/28 02:51:18;;;;;;;1.87;0.90;;;;;;;9.89;100.00;96627.34;5077003;28;20204;-73
2023/10/28 02:53:45;;;;;;;1.50;0.80;;;;;;;9.88;100.00;96629.22;5077244;28;20205;-73
2023/10/28 02:56:11;;;;;;;3.13;0.83;;;;;;;9.92;100.00;96626.88;5076906;28;20291;-73
2023/10/28 02:58:38;;;;;;;2.77;0.70;;;;;;;9.90;100.00;96623.66;5076797;28;20312;-73
2023/10/28 03:01:12;;;;;;;3.67;1.03;;;;;;;9.89;100.00;96628.19;5076825;28;20269;-73
2023/10/28 03:03:41;;;;;;;1.67;0.83;;;;;;;9.90;100.00;96628.97;5077685;28;20189;-73
2023/10/28 03:06:07;;;;;;;3.83;0.73;;;;;;;9.93;100.00;96628.47;5077026;28;20621;-73
2023/10/28 03:08:34;;;;;;;3.13;0.90;;;;;;;9.96;100.00;96625.31;5076243;28;20232;-73
2023/10/28 03:11:00;;;;;;;2.10;0.77;;;;;;;9.98;100.00;96631.19;5076639;28;20216;-73
2023/10/28 03:13:27;;;;;;;1.60;1.03;;;;;;;9.92;100.00;96629.53;5076675;28;20226;-73
2023/10/28 03:15:53;;;;;;;3.10;0.80;;;;;;;9.91;100.00;96623.41;5077152;28;20204;-73
2023/10/28 03:18:20;;;;;;;1.97;0.90;;;;;;;9.88;100.00;96631.06;5076490;28;20224;-73
2023/10/28 03:20:46;;;;;;;3.57;1.00;;;;;;;9.90;100.00;96627.13;5076785;28;20204;-73
2023/10/28 03:23:13;;;;;;;4.37;0.87;;;;;;;9.88;100.00;96625.75;5076317;28;20290;-73
2023/10/28 03:25:39;;;;;;;1.93;0.80;;;;;;;9.88;100.00;96618.63;5076693;28;20576;-73
2023/10/28 03:28:05;;;;;;;1.07;0.70;;;;;;;9.76;100.00;96617.13;5076573;28;20581;-73
2023/10/28 03:30:32;;;;;;;2.40;0.90;;;;;;;9.80;100.00;96626.19;5076652;28;20208;-73
2023/10/28 03:33:00;;;;;;;2.93;0.83;;;;;;;9.79;100.00;96630.72;5076233;28;20218;-73
2023/10/28 03:35:26;;;;;;;4.00;1.03;;;;;;;9.76;100.00;96630.41;5076358;28;20211;-73
2023/10/28 03:37:55;;;;;;;4.73;1.20;;;;;;;9.88;100.00;96641.69;5075583;28;20251;-73
2023/10/28 03:40:21;;;;;;;4.03;1.00;;;;;;;9.94;100.00;96630.88;5075811;28;20214;-73
2023/10/28 03:42:48;;;;;;;2.87;1.40;;;;;;;9.96;100.00;96634.06;5075900;28;20212;-73
2023/10/28 03:45:14;;;;;;;6.20;1.07;;;;;;;10.05;100.00;96637.94;5075598;28;20205;-73
2023/10/28 03:47:41;;;;;;;1.73;1.00;;;;;;;10.08;100.00;96633.97;5075778;28;20232;-73
2023/10/28 03:50:07;;;;;;;1.70;0.87;;;;;;;10.22;100.00;96643.94;5075748;28;20686;-73
2023/10/28 03:52:34;;;;;;;5.17;1.10;;;;;;;10.16;100.00;96631.69;5075591;28;20205;-73
2023/10/28 03:55:00;;;;;;;4.57;1.07;;;;;;;10.14;100.00;96633.78;5076184;28;20208;-73
2023/10/28 03:57:26;;;;;;;2.37;1.10;;;;;;;10.19;100.00;96638.34;5074978;28;20229;-73
2023/10/28 03:59:53;;;;;;;5.40;1.20;;;;;;;10.22;100.00;96640.47;5075703;28;20211;-73
2023/10/28 04:02:19;;;;;;;3.87;1.20;;;;;;;10.19;100.00;96644.44;5075663;28;20291;-73
2023/10/28 04:04:46;;;;;;;5.37;1.53;;;;;;;10.12;100.00;96635.06;5075825;28;20212;-73
2023/10/28 04:07:12;;;;;;;1.37;0.83;;;;;;;10.15;100.00;96638.06;5075521;28;20212;-73
2023/10/28 04:09:39;;;;;;;4.27;1.00;;;;;;;10.19;100.00;96630.38;5075303;28;20264;-73
2023/10/28 04:12:06;;;;;;;3.87;1.23;;;;;;;10.17;100.00;96616.53;5076224;28;20208;-73
2023/10/28 04:14:34;;;;;;;3.60;1.40;;;;;;;10.05;100.00;96621.22;5075240;28;20573;-73
2023/10/28 04:17:00;;;;;;;3.27;1.00;;;;;;;10.04;100.00;96635.47;5075181;28;20204;-73
2023/10/28 04:19:27;;;;;;;2.10;1.07;;;;;;;10.06;100.00;96633.44;5075479;28;20283;-73
2023/10/28 04:21:54;;;;;;;4.07;1.20;;;;;;;10.25;100.00;96632.03;5075287;28;20234;-73
2023/10/28 04:24:20;;;;;;;2.80;1.20;;;;;;;10.30;100.00;96624.91;5074999;28;20686;-73
2023/10/28 04:26:47;;;;;;;4.70;1.50;;;;;;;10.32;100.00;96616.69;5075505;28;20205;-73
2023/10/28 04:29:13;;;;;;;2.70;1.10;;;;;;;10.36;100.00;96620.47;5074957;28;20224;-73
2023/10/28 04:31:39;;;;;;;3.77;0.97;;;;;;;10.22;100.00;96625.34;5075381;28;20205;-73
2023/10/28 04:34:06;;;;;;;3.03;0.97;;;;;;;10.33;100.00;96628.91;5075221;28;20214;-73
2023/10/28 04:36:33;;;;;;;3.13;1.20;;;;;;;10.39;100.00;96633.22;5074768;28;20208;-73
2023/10/28 04:38:59;;;;;;;4.47;1.10;;;;;;;10.33;100.00;96635.00;5074844;28;20274;-73
2023/10/28 04:41:26;;;;;;;3.83;0.97;;;;;;;10.28;100.00;96628.88;5075103;28;20207;-73
2023/10/28 04:43:52;;;;;;;2.20;0.80;;;;;;;10.44;100.00;96630.59;5074709;28;20204;-73
2023/10/28 04:46:18;;;;;;;4.20;1.23;;;;;;;10.39;100.00;96630.56;5074757;28;20205;-73
2023/10/28 04:48:46;;;;;;;3.17;1.17;;;;;;;10.33;100.00;96621.72;5074250;28;20271;-73
2023/10/28 04:51:13;;;;;;;2.43;0.90;;;;;;;10.26;100.00;96628.31;5074419;28;20201;-73
2023/10/28 04:53:40;;;;;;;2.30;0.73;;;;;;;10.22;100.00;96611.25;5074589;28;20287;-73
2023/10/28 04:56:08;;;;;;;1.97;0.70;;;;;;;10.23;100.00;96623.53;5074792;28;20208;-73
2023/10/28 04:58:35;;;;;;;3.03;0.83;;;;;;;10.26;100.00;96633.63;5074656;28;20252;-73
2023/10/28 05:01:01;;;;;;;5.30;1.00;;;;;;;10.24;100.00;96625.94;5074501;28;20216;-73
2023/10/28 05:03:27;;;;;;;2.93;0.90;;;;;;;10.25;100.00;96632.03;5074529;28;20211;-73
2023/10/28 05:05:54;;;;;;;2.03;0.83;;;;;;;10.27;100.00;96633.38;5074005;28;20216;-73
2023/10/28 05:08:20;;;;;;;2.03;0.80;;;;;;;10.25;100.00;96635.50;5073558;28;20228;-73
2023/10/28 05:10:47;;;;;;;2.60;0.87;;;;;;;10.18;100.00;96637.53;5074175;28;20598;-73
2023/10/28 05:13:14;;;;;;;3.03;0.87;;;;;;;10.18;100.00;96623.47;5073984;28;20210;-73
2023/10/28 05:15:40;;;;;;;2.73;0.70;;;;;;;10.15;100.00;96624.78;5074000;28;20203;-73
2023/10/28 05:18:06;;;;;;;3.20;0.90;;;;;;;10.09;100.00;96622.31;5074181;28;20225;-73
2023/10/28 05:20:34;;;;;;;2.97;1.03;;;;;;;10.07;100.00;96625.22;5074019;28;20591;-73
2023/10/28 05:23:00;;;;;;;3.20;0.90;;;;;;;10.15;100.00;96614.16;5073762;28;20208;-73
2023/10/28 05:25:27;;;;;;;2.43;0.70;;;;;;;10.10;100.00;96623.91;5073877;28;20211;-73
2023/10/28 05:27:53;;;;;;;1.77;0.80;;;;;;;10.07;100.00;96624.41;5074180;28;20224;-73
2023/10/28 05:30:19;;;;;;;3.00;0.90;;;;;;;10.10;100.00;96619.38;5073974;28;20235;-73
2023/10/28 05:32:46;;;;;;;2.43;1.00;;;;;;;10.00;100.00;96629.09;5074014;28;20550;-73
2023/10/28 05:35:13;;;;;;;3.67;0.90;;;;;;;10.03;100.00;96618.78;5073846;28;20563;-73
2023/10/28 05:37:39;;;;;;;2.97;0.73;;;;;;;10.03;100.00;96633.88;5073686;28;20337;-73
2023/10/28 05:40:10;;;;;;;1.13;0.70;;;;;;;10.07;100.00;96635.03;5073532;28;20203;-73
2023/10/28 05:42:37;;;;;;;2.43;0.87;;;;;;;10.08;100.00;96626.00;5073786;28;20221;-73
2023/10/28 05:45:05;;;;;;;2.30;0.70;;;;;;;10.00;100.00;96621.13;5073658;28;20208;-73
2023/10/28 05:47:31;;;;;;;1.90;0.67;;;;;;;9.99;100.00;96630.13;5073537;28;20221;-73
2023/10/28 05:49:59;;;;;;;3.30;0.80;;;;;;;9.93;100.00;96631.13;5073609;28;20275;-73
2023/10/28 05:52:25;;;;;;;2.43;0.90;;;;;;;9.95;100.00;96634.31;5073424;28;20223;-73
2023/10/28 05:54:51;;;;;;;4.63;1.30;;;;;;;9.92;100.00;96643.59;5073607;28;20207;-73
2023/10/28 05:57:18;;;;;;;2.63;0.80;;;;;;;9.93;100.00;96644.41;5073416;28;20237;-73
2023/10/28 05:59:44;;;;;;;2.57;1.10;;;;;;;10.00;100.00;96642.38;5073583;28;20201;-73
2023/10/28 06:02:10;;;;;;;1.47;0.97;;;;;;;10.11;100.00;96652.06;5073489;28;20234;-73
2023/10/28 06:04:37;;;;;;;3.87;1.00;;;;;;;10.06;100.00;96649.34;5073899;28;20210;-73
2023/10/28 06:07:03;;;;;;;4.77;0.90;;;;;;;10.05;100.00;96647.75;5073180;28;20721;-73
2023/10/28 06:09:30;;;;;;;2.43;1.00;;;;;;;10.13;100.00;96656.06;5073455;28;20312;-73
2023/10/28 06:11:56;;;;;;;3.73;1.60;;;;;;;10.16;100.00;96660.06;5073651;28;20196;-73
2023/10/28 06:14:23;;;;;;;2.70;0.87;;;;;;;10.18;100.00;96660.66;5073067;28;20204;-73
2023/10/28 06:16:49;;;;;;;1.90;0.80;;;;;;;10.20;100.00;96658.53;5073211;28;20215;-73
2023/10/28 06:19:15;;;;;;;1.50;0.80;;;;;;;10.19;100.00;96656.94;5072648;28;20225;-73
2023/10/28 06:21:42;;;;;;;3.07;0.90;;;;;;;10.23;100.00;96655.38;5073375;28;20204;-73
2023/10/28 06:24:08;;;;;;;2.80;1.17;;;;;;;10.23;100.00;96677.41;5073212;28;20201;-73
2023/10/28 06:26:35;;;;;;;3.10;0.90;;;;;;;10.21;100.00;96673.41;5072778;28;20235;-73
2023/10/28 06:29:01;;;;;;;2.27;0.80;;;;;;;10.23;100.00;96676.63;5072996;28;20246;-73
2023/10/28 06:31:28;;;;;;;3.17;1.10;;;;;;;10.24;100.00;96686.19;5073273;28;20204;-73
2023/10/28 06:33:54;;;;;;;1.80;1.00;;;;;;;10.24;100.00;96680.88;5073117;28;20568;-73
2023/10/28 06:36:21;;;;;;;2.13;0.93;;;;;;;10.29;100.00;96688.91;5073095;28;20292;-73
2023/10/28 06:38:48;;;;;;;3.43;1.07;;;;;;;10.32;100.00;96693.72;5073070;28;20220;-73
2023/10/28 06:41:14;;;;;;;1.97;1.07;;;;;;;10.30;100.00;96693.97;5073192;28;20216;-73
2023/10/28 06:43:40;;;;;;;3.20;1.23;;;;;;;10.40;100.00;96696.72;5072765;28;20243;-73
2023/10/28 06:46:07;;;;;;;4.03;1.23;;;;;;;10.41;100.00;96705.50;5072567;28;20216;-73
2023/10/28 06:48:33;;;;;;;2.73;0.77;;;;;;;10.40;100.00;96701.22;5072768;28;20251;-73
2023/10/28 06:51:00;;;;;;;2.70;0.83;;;;;;;10.42;100.00;96704.44;5072603;28;20215;-73
2023/10/28 06:53:26;;;;;;;5.97;1.60;;;;;;;10.35;100.00;96711.78;5073324;28;20196;-73
2023/10/28 06:55:53;;;;;;;2.63;0.90;;;;;;;10.28;100.00;96706.69;5072777;28;20216;-73
2023/10/28 06:58:19;;;;;;;3.63;1.10;;;;;;;10.32;100.00;96712.31;5072631;28;20224;-73
2023/10/28 07:00:45;;;;;;;3.47;1.00;;;;;;;10.38;100.00;96717.44;5072659;28;20208;-73
2023/10/28 07:03:14;;;;;;;2.90;1.07;;;;;;;10.37;100.00;96715.03;5072855;28;20251;-73
2023/10/28 07:05:40;;;;;;;1.20;0.80;;;;;;;10.31;100.00;96721.31;5073335;28;20212;-73
2023/10/28 07:08:07;;;;;;;2.87;0.83;;;;;;;10.25;100.00;96732.94;5072499;28;20311;-73
2023/10/28 07:10:33;;;;;;;3.53;1.00;;;;;;;10.39;100.00;96747.44;5072277;28;20224;-73
2023/10/28 07:13:00;;;;;;;2.83;1.20;;;;;;;10.61;100.00;96742.91;5072286;28;20657;-73
2023/10/28 07:15:26;;;;;;;2.73;1.07;;;;;;;10.74;100.00;96737.19;5072981;28;20304;-73
2023/10/28 07:17:52;;;;;;;3.37;1.10;;;;;;;10.88;100.00;96739.19;5072610;28;20286;-73
2023/10/28 07:20:19;;;;;;;3.80;1.10;;;;;;;10.97;100.00;96739.53;5070598;28;20281;-75
2023/10/28 07:22:47;;;;;;;2.97;1.13;;;;;;;11.08;100.00;96742.00;5071713;28;20212;-75
2023/10/28 07:25:14;;;;;;;4.23;1.10;;;;;;;11.13;100.00;96744.72;5072321;28;20201;-75
2023/10/28 07:27:40;;;;;;;3.23;0.97;;;;;;;11.18;100.00;96755.38;5072338;28;20283;-75
2023/10/28 07:30:07;;;;;;;1.97;1.10;;;;;;;11.27;100.00;96729.94;5071747;28;20221;-75
2023/10/28 07:32:34;;;;;;;2.70;1.20;;;;;;;11.45;100.00;96755.34;5074347;28;20701;-75
2023/10/28 07:35:02;;;;;;;3.33;1.00;;;;;;;11.52;100.00;96755.91;5075452;28;20213;-75
2023/10/28 07:37:28;;;;;;;2.73;1.40;;;;;;;11.47;100.00;96752.41;5075659;28;20230;-75
2023/10/28 07:39:54;;;;;;;3.80;1.30;;;;;;;11.49;100.00;96764.41;5074625;28;20204;-75
2023/10/28 07:42:23;;;;;;;3.37;1.20;;;;;;;11.45;100.00;96767.84;5075526;28;20219;-75
2023/10/28 07:44:50;;;;;;;3.50;1.10;;;;;;;11.46;100.00;96767.59;5075858;28;20617;-75
2023/10/28 07:47:17;;;;;;;2.33;0.90;;;;;;;11.58;100.00;96768.19;5075744;28;20233;-73
2023/10/28 07:49:43;;;;;;;3.00;1.33;;;;;;;11.63;100.00;96772.78;5075478;28;20711;-73
2023/10/28 07:52:09;;;;;;;2.60;0.90;;;;;;;11.71;100.00;96772.31;5073333;28;20582;-73
2023/10/28 07:54:36;;;;;;;1.47;1.10;;;;;;;11.74;100.00;96782.44;5075157;28;20681;-73
2023/10/28 07:57:04;;;;;;;2.53;1.23;;;;;;;11.83;100.00;96789.69;5075779;28;20205;-73
2023/10/28 07:59:30;;;;;;;2.00;1.10;;;;;;;11.87;100.00;96790.78;5075566;28;20263;-73
2023/10/28 08:01:58;;;;;;;3.33;1.23;;;;;;;11.88;100.00;96802.22;5074487;28;20301;-73
2023/10/28 08:04:25;;;;;;;2.77;1.20;;;;;;;11.89;100.00;96786.00;5075990;28;20653;-73
2023/10/28 08:06:51;;;;;;;3.23;1.40;;;;;;;11.85;100.00;96787.56;5075535;28;20616;-73
2023/10/28 08:09:18;;;;;;;4.03;1.00;;;;;;;11.93;100.00;96796.94;5075176;28;20230;-73
2023/10/28 08:11:44;;;;;;;3.70;1.07;;;;;;;11.93;100.00;96795.06;5074035;28;20214;-73
2023/10/28 08:14:13;;;;;;;2.90;1.07;;;;;;;11.94;100.00;96793.22;5074108;28;20629;-73
2023/10/28 08:16:40;;;;;;;4.13;1.20;;;;;;;11.85;100.00;96794.78;5074044;28;20211;-73
2023/10/28 08:19:08;;;;;;;3.17;1.30;;;;;;;12.01;100.00;96810.56;5073512;28;20222;-73
2023/10/28 08:21:34;;;;;;;2.87;1.13;;;;;;;12.01;100.00;96799.91;5074157;28;20239;-73
2023/10/28 08:24:01;;;;;;;3.73;1.10;;;;;;;12.08;100.00;96807.69;5074654;28;20635;-73
2023/10/28 08:26:27;;;;;;;2.43;1.30;;;;;;;12.16;100.00;96815.97;5075006;28;20550;-73
2023/10/28 08:28:53;;;;;;;4.50;1.20;;;;;;;12.28;100.00;96813.09;5074625;28;20234;-73
2023/10/28 08:31:20;;;;;;;2.67;1.10;;;;;;;12.31;100.00;96808.09;5073991;28;20211;-74
2023/10/28 08:33:50;;;;;;;2.63;1.20;;;;;;;12.50;100.00;96809.22;5072712;28;20551;-73
2023/10/28 08:36:17;;;;;;;2.97;1.30;;;;;;;12.59;100.00;96805.00;5074559;28;20215;-73
2023/10/28 08:38:44;;;;;;;1.53;1.10;;;;;;;12.75;100.00;96814.63;5073819;28;20240;-73
2023/10/28 08:41:11;;;;;;;2.83;1.00;;;;;;;12.87;100.00;96806.38;5074934;28;20208;-73
2023/10/28 08:43:38;;;;;;;3.93;1.20;;;;;;;13.04;100.00;96812.34;5074197;28;20690;-73
2023/10/28 08:46:05;;;;;;;3.67;1.27;;;;;;;13.23;100.00;96806.22;5074624;28;20208;-73
2023/10/28 08:48:37;;;;;;;2.47;1.10;;;;;;;13.14;100.00;96813.16;5073370;28;20239;-73
2023/10/28 08:51:06;;;;;;;3.33;1.20;;;;;;;13.13;100.00;96805.41;5072969;28;20224;-73
2023/10/28 08:53:34;;;;;;;3.50;1.30;;;;;;;13.03;100.00;96814.19;5074262;28;20664;-73
2023/10/28 08:56:02;;;;;;;3.83;1.10;;;;;;;12.92;100.00;96809.06;5074645;28;20212;-73
2023/10/28 08:58:29;;;;;;;3.27;1.40;;;;;;;12.96;100.00;96812.81;5074558;28;20549;-73
2023/10/28 09:00:59;;;;;;;4.93;1.10;;;;;;;12.96;100.00;96816.28;5073311;28;20201;-73
2023/10/28 09:03:27;;;;;;;2.53;0.83;;;;;;;13.01;100.00;96812.84;5073974;28;20305;-73
2023/10/28 09:05:54;;;;;;;3.67;1.10;;;;;;;13.10;100.00;96817.41;5074058;28;20204;-73
2023/10/28 09:08:21;;;;;;;2.93;1.20;;;;;;;13.19;100.00;96821.16;5073983;28;20597;-73
2023/10/28 09:10:48;;;;;;;2.93;1.07;;;;;;;13.28;100.00;96822.25;5073044;28;20286;-73
2023/10/28 09:13:15;;;;;;;2.73;1.07;;;;;;;13.41;100.00;96826.25;5074423;28;20287;-73
2023/10/28 09:15:42;;;;;;;2.73;1.17;;;;;;;13.46;100.00;96820.91;5074082;28;20288;-73
2023/10/28 09:18:09;;;;;;;3.23;1.20;;;;;;;13.54;100.00;96834.56;5074237;28;20244;-73
2023/10/28 09:20:40;;;;;;;2.47;1.20;;;;;;;13.51;100.00;96831.59;5072821;28;20205;-73
2023/10/28 09:23:06;;;;;;;2.63;0.80;;;;;;;13.55;100.00;96828.13;5073809;28;20208;-73
2023/10/28 09:25:34;;;;;;;5.80;1.20;;;;;;;13.62;100.00;96831.31;5074109;28;20210;-73
2023/10/28 09:28:07;;;;;;;4.27;1.40;;;;;;;13.74;100.00;96828.41;5073474;28;20228;-73
2023/10/28 09:30:44;;;;;;;2.97;1.20;;;;;;;13.65;100.00;96822.78;5072578;28;20682;-73
2023/10/28 09:33:10;;;;;;;3.17;1.17;;;;;;;13.70;100.00;96828.13;5073676;28;20193;-73
2023/10/28 09:35:40;;;;;;;2.10;1.00;;;;;;;13.57;100.00;96827.88;5073675;28;20226;-73
2023/10/28 09:38:08;;;;;;;1.87;1.00;;;;;;;13.59;100.00;96823.88;5073482;28;20235;-74
2023/10/28 09:40:34;;;;;;;6.50;1.47;;;;;;;13.66;100.00;96826.28;5072822;28;20211;-74
2023/10/28 09:43:03;;;;;;;2.30;1.00;;;;;;;13.68;100.00;96838.28;5073336;28;20211;-73
2023/10/28 09:45:29;;;;;;;4.30;1.30;;;;;;;13.74;100.00;96842.56;5073304;28;20691;-73
2023/10/28 09:47:57;;;;;;;3.03;1.30;;;;;;;13.64;100.00;96839.88;5072250;28;20302;-73
2023/10/28 09:50:26;;;;;;;3.93;1.20;;;;;;;13.71;100.00;96837.72;5073208;28;20238;-73
2023/10/28 09:52:53;;;;;;;2.20;1.10;;;;;;;13.59;100.00;96836.41;5073424;28;20204;-74
2023/10/28 09:55:25;;;;;;;1.87;1.07;;;;;;;13.67;100.00;96836.69;5072705;28;20246;-74
2023/10/28 09:57:56;;;;;;;4.90;1.33;;;;;;;13.72;100.00;96836.69;5072354;28;20232;-73
2023/10/28 10:00:26;;;;;;;2.93;1.10;;;;;;;13.77;100.00;96835.88;5072730;28;20623;-73
2023/10/28 10:02:55;;;;;;;2.53;1.30;;;;;;;14.02;100.00;96843.88;5073629;28;20192;-73
2023/10/28 10:05:34;;;;;;;2.63;1.17;;;;;;;14.26;100.00;96837.72;5073226;28;20211;-73
2023/10/28 10:08:02;;;;;;;2.20;1.00;;;;;;;14.57;100.00;96828.50;5072136;28;20220;-73
2023/10/28 10:10:29;;;;;;;1.97;1.20;;;;;;;14.59;100.00;96837.06;5072842;28;20325;-73
2023/10/28 10:13:02;;;;;;;5.10;1.20;;;;;;;14.58;100.00;96840.00;5071961;28;20674;-73
2023/10/28 10:15:32;;;;;;;2.10;1.17;;;;;;;14.66;100.00;96842.91;5072977;28;20683;-74
2023/10/28 10:18:05;;;;;;;3.50;1.20;;;;;;;14.69;100.00;96837.03;5073163;28;20235;-74
2023/10/28 10:20:34;;;;;;;2.93;1.33;;;;;;;14.80;100.00;96835.09;5072934;28;20181;-74
2023/10/28 10:23:02;;;;;;;2.83;1.27;;;;;;;14.73;100.00;96834.59;5071882;28;20204;-74
2023/10/28 10:25:39;;;;;;;3.63;1.23;;;;;;;14.63;100.00;96840.78;5072443;28;20207;-74
2023/10/28 10:28:26;;;;;;;2.53;1.10;;;;;;;14.56;100.00;96836.81;5072085;28;20230;-74
2023/10/28 10:30:53;;;;;;;3.63;1.30;;;;;;;14.51;100.00;96840.28;5072795;28;20616;-74
2023/10/28 10:33:27;;;;;;;1.83;1.27;;;;;;;14.62;100.00;96843.75;5072442;28;20223;-74
2023/10/28 10:35:54;;;;;;;2.07;1.10;;;;;;;14.59;100.00;96831.72;5072782;28;20204;-74
2023/10/28 10:38:29;;;;;;;2.37;1.30;;;;;;;14.60;100.00;96844.00;5072766;28;20617;-74
2023/10/28 10:40:58;;;;;;;2.50;1.27;;;;;;;14.48;100.00;96834.69;5072553;28;20647;-74
2023/10/28 10:43:32;;;;;;;3.80;1.27;;;;;;;14.51;100.00;96834.16;5070741;28;20204;-74
2023/10/28 10:45:59;;;;;;;3.90;1.10;;;;;;;14.65;100.00;96835.97;5072577;28;20195;-74
2023/10/28 10:48:27;;;;;;;4.05;1.63;;;;;;;14.84;100.00;96833.47;5072382;28;20459;-74
2023/10/28 10:50:55;;;;;;;4.53;1.50;;;;;;;14.95;100.00;96833.16;5072714;28;20221;-74
2023/10/28 10:53:22;;;;;;;3.00;1.30;;;;;;;14.91;100.00;96837.44;5072477;28;20235;-74
2023/10/28 10:55:49;;;;;;;5.00;1.40;;;;;;;15.06;100.00;96831.22;5073161;28;20212;-74
2023/10/28 10:58:15;;;;;;;5.03;1.40;;;;;;;14.93;100.00;96837.97;5072312;28;20231;-74
2023/10/28 11:00:41;;;;;;;4.30;1.47;;;;;;;15.03;100.00;96834.44;5072577;28;20212;-74
2023/10/28 11:03:10;;;;;;;3.10;1.27;;;;;;;15.00;100.00;96827.78;5071808;28;20576;-73
2023/10/28 11:05:36;;;;;;;5.57;1.73;;;;;;;14.92;100.00;96836.38;5062675;28;20208;-73
2023/10/28 11:08:04;;;;;;;3.57;1.40;;;;;;;14.86;100.00;96832.13;5056163;28;20791;-73
2023/10/28 11:10:30;;;;;;;4.93;1.33;;;;;;;14.61;100.00;96829.56;5056059;28;20221;-73
2023/10/28 11:12:56;;;;;;;3.53;1.23;;;;;;;14.44;100.00;96833.63;5063683;28;20196;-74
2023/10/28 11:15:23;;;;;;;5.23;1.40;;;;;;;14.39;100.00;96837.13;5076093;28;20686;-74
2023/10/28 11:17:51;;;;;;;5.70;1.40;;;;;;;14.12;100.00;96842.00;5075519;28;20240;-74
2023/10/28 11:20:21;;;;;;;3.23;1.30;;;;;;;14.01;100.00;96835.03;5072975;28;20604;-74
2023/10/28 11:22:48;;;;;;;3.67;1.30;;;;;;;13.95;100.00;96835.31;5075165;28;20205;-74
2023/10/28 11:25:14;;;;;;;3.13;1.40;;;;;;;13.95;100.00;96835.31;5076145;28;20218;-74
2023/10/28 11:27:40;;;;;;;3.43;1.40;;;;;;;13.98;100.00;96829.44;5075796;28;20312;-74